sensor_id;sensor_type;location;lat;lon;timestamp;P1;durP1;ratioP1;P2;durP2;ratioP2
46028;SDS011;31763;48.180;7.904;2022-07-22T00:02:06;8.10;;;5.55;;
46028;SDS011;31763;48.180;7.904;2022-07-22T00:04:33;8.07;;;5.82;;
46028;SDS011;31763;48.180;7.904;2022-07-22T00:07:00;7.10;;;5.45;;
46028;SDS011;31763;48.180;7.904;2022-07-22T00:09:27;8.23;;;6.15;;
46028;SDS011;31763;48.180;7.904;2022-07-22T00:11:54;10.40;;;5.78;;
46028;SDS011;31763;48.180;7.904;2022-07-22T00:14:21;8.35;;;5.93;;
46028;SDS011;31763;48.180;7.904;2022-07-22T00:16:49;6.43;;;5.65;;
46028;SDS011;31763;48.180;7.904;2022-07-22T00:19:16;7.30;;;5.63;;
46028;SDS011;31763;48.180;7.904;2022-07-22T00:21:43;7.90;;;5.47;;
46028;SDS011;31763;48.180;7.904;2022-07-22T00:24:09;6.55;;;5.47;;
46028;SDS011;31763;48.180;7.904;2022-07-22T00:26:36;9.10;;;5.95;;
46028;SDS011;31763;48.180;7.904;2022-07-22T00:29:03;6.45;;;5.47;;
46028;SDS011;31763;48.180;7.904;2022-07-22T00:31:30;6.85;;;5.25;;
46028;SDS011;31763;48.180;7.904;2022-07-22T00:33:58;6.03;;;5.43;;
46028;SDS011;31763;48.180;7.904;2022-07-22T00:36:29;8.05;;;6.00;;
46028;SDS011;31763;48.180;7.904;2022-07-22T00:38:56;6.22;;;5.63;;
46028;SDS011;31763;48.180;7.904;2022-07-22T00:41:25;6.38;;;5.65;;
46028;SDS011;31763;48.180;7.904;2022-07-22T00:44:03;6.03;;;5.32;;
46028;SDS011;31763;48.180;7.904;2022-07-22T00:46:33;7.72;;;5.70;;
46028;SDS011;31763;48.180;7.904;2022-07-22T00:49:04;7.00;;;5.90;;
46028;SDS011;31763;48.180;7.904;2022-07-22T00:51:33;8.77;;;5.97;;
46028;SDS011;31763;48.180;7.904;2022-07-22T00:54:00;6.40;;;5.32;;
46028;SDS011;31763;48.180;7.904;2022-07-22T00:56:28;7.15;;;5.72;;
46028;SDS011;31763;48.180;7.904;2022-07-22T00:58:56;6.60;;;5.85;;
46028;SDS011;31763;48.180;7.904;2022-07-22T01:01:27;7.53;;;5.93;;
46028;SDS011;31763;48.180;7.904;2022-07-22T01:03:54;7.50;;;5.60;;
46028;SDS011;31763;48.180;7.904;2022-07-22T01:06:27;5.47;;;4.90;;
46028;SDS011;31763;48.180;7.904;2022-07-22T01:08:56;5.90;;;5.25;;
46028;SDS011;31763;48.180;7.904;2022-07-22T01:11:34;6.30;;;5.50;;
46028;SDS011;31763;48.180;7.904;2022-07-22T01:14:13;8.80;;;5.55;;
46028;SDS011;31763;48.180;7.904;2022-07-22T01:16:41;7.57;;;5.47;;
46028;SDS011;31763;48.180;7.904;2022-07-22T01:19:26;11.15;;;6.13;;
46028;SDS011;31763;48.180;7.904;2022-07-22T01:21:53;9.43;;;6.68;;
46028;SDS011;31763;48.180;7.904;2022-07-22T01:24:20;7.50;;;5.85;;
46028;SDS011;31763;48.180;7.904;2022-07-22T01:26:47;7.53;;;6.80;;
46028;SDS011;31763;48.180;7.904;2022-07-22T01:29:14;7.05;;;5.78;;
46028;SDS011;31763;48.180;7.904;2022-07-22T01:31:41;7.20;;;5.57;;
46028;SDS011;31763;48.180;7.904;2022-07-22T01:34:08;6.50;;;5.63;;
46028;SDS011;31763;48.180;7.904;2022-07-22T01:36:34;6.70;;;5.75;;
46028;SDS011;31763;48.180;7.904;2022-07-22T01:39:04;6.78;;;5.60;;
46028;SDS011;31763;48.180;7.904;2022-07-22T01:41:41;6.47;;;5.80;;
46028;SDS011;31763;48.180;7.904;2022-07-22T01:44:09;7.63;;;6.00;;
46028;SDS011;31763;48.180;7.904;2022-07-22T01:46:36;7.35;;;6.10;;
46028;SDS011;31763;48.180;7.904;2022-07-22T01:49:03;6.85;;;5.65;;
46028;SDS011;31763;48.180;7.904;2022-07-22T01:51:32;10.55;;;6.40;;
46028;SDS011;31763;48.180;7.904;2022-07-22T01:54:13;6.90;;;6.20;;
46028;SDS011;31763;48.180;7.904;2022-07-22T01:56:41;8.63;;;6.65;;
46028;SDS011;31763;48.180;7.904;2022-07-22T01:59:08;6.50;;;5.90;;
46028;SDS011;31763;48.180;7.904;2022-07-22T02:01:35;7.82;;;5.78;;
46028;SDS011;31763;48.180;7.904;2022-07-22T02:04:02;8.27;;;6.10;;
46028;SDS011;31763;48.180;7.904;2022-07-22T02:06:29;7.55;;;6.07;;
46028;SDS011;31763;48.180;7.904;2022-07-22T02:08:57;6.70;;;5.95;;
46028;SDS011;31763;48.180;7.904;2022-07-22T02:11:25;6.53;;;5.80;;
46028;SDS011;31763;48.180;7.904;2022-07-22T02:13:52;7.65;;;6.60;;
46028;SDS011;31763;48.180;7.904;2022-07-22T02:16:19;9.68;;;6.10;;
46028;SDS011;31763;48.180;7.904;2022-07-22T02:18:46;8.13;;;5.93;;
46028;SDS011;31763;48.180;7.904;2022-07-22T02:21:13;7.68;;;6.03;;
46028;SDS011;31763;48.180;7.904;2022-07-22T02:23:40;7.22;;;6.15;;
46028;SDS011;31763;48.180;7.904;2022-07-22T02:26:07;6.82;;;6.13;;
46028;SDS011;31763;48.180;7.904;2022-07-22T02:28:34;7.30;;;6.20;;
46028;SDS011;31763;48.180;7.904;2022-07-22T02:31:01;7.18;;;6.47;;
46028;SDS011;31763;48.180;7.904;2022-07-22T02:33:28;7.88;;;6.28;;
46028;SDS011;31763;48.180;7.904;2022-07-22T02:35:58;7.05;;;6.35;;
46028;SDS011;31763;48.180;7.904;2022-07-22T02:38:25;6.35;;;5.70;;
46028;SDS011;31763;48.180;7.904;2022-07-22T02:40:54;6.57;;;5.93;;
46028;SDS011;31763;48.180;7.904;2022-07-22T02:43:27;6.88;;;6.05;;
46028;SDS011;31763;48.180;7.904;2022-07-22T02:46:24;7.60;;;6.10;;
46028;SDS011;31763;48.180;7.904;2022-07-22T02:49:14;6.72;;;6.00;;
46028;SDS011;31763;48.180;7.904;2022-07-22T02:51:41;8.63;;;6.50;;
46028;SDS011;31763;48.180;7.904;2022-07-22T02:54:07;6.70;;;5.97;;
46028;SDS011;31763;48.180;7.904;2022-07-22T02:56:34;7.38;;;6.20;;
46028;SDS011;31763;48.180;7.904;2022-07-22T02:59:01;8.88;;;6.50;;
46028;SDS011;31763;48.180;7.904;2022-07-22T03:01:28;11.77;;;6.55;;
46028;SDS011;31763;48.180;7.904;2022-07-22T03:03:56;7.32;;;6.00;;
46028;SDS011;31763;48.180;7.904;2022-07-22T03:06:23;7.57;;;6.25;;
46028;SDS011;31763;48.180;7.904;2022-07-22T03:08:50;7.43;;;6.10;;
46028;SDS011;31763;48.180;7.904;2022-07-22T03:11:17;7.93;;;6.28;;
46028;SDS011;31763;48.180;7.904;2022-07-22T03:13:50;7.72;;;6.40;;
46028;SDS011;31763;48.180;7.904;2022-07-22T03:16:31;7.45;;;6.18;;
46028;SDS011;31763;48.180;7.904;2022-07-22T03:19:06;8.35;;;6.35;;
46028;SDS011;31763;48.180;7.904;2022-07-22T03:24:25;7.38;;;6.68;;
46028;SDS011;31763;48.180;7.904;2022-07-22T03:26:58;7.95;;;6.22;;
46028;SDS011;31763;48.180;7.904;2022-07-22T03:29:42;6.85;;;6.15;;
46028;SDS011;31763;48.180;7.904;2022-07-22T03:32:20;7.60;;;6.63;;
46028;SDS011;31763;48.180;7.904;2022-07-22T03:34:47;7.57;;;6.28;;
46028;SDS011;31763;48.180;7.904;2022-07-22T03:37:13;8.50;;;6.30;;
46028;SDS011;31763;48.180;7.904;2022-07-22T03:39:40;9.65;;;6.55;;
46028;SDS011;31763;48.180;7.904;2022-07-22T03:42:07;7.60;;;6.55;;
46028;SDS011;31763;48.180;7.904;2022-07-22T03:44:34;9.18;;;6.53;;
46028;SDS011;31763;48.180;7.904;2022-07-22T03:47:01;7.60;;;6.18;;
46028;SDS011;31763;48.180;7.904;2022-07-22T03:49:28;7.90;;;6.43;;
46028;SDS011;31763;48.180;7.904;2022-07-22T03:51:56;8.68;;;6.32;;
46028;SDS011;31763;48.180;7.904;2022-07-22T03:54:25;7.68;;;6.53;;
46028;SDS011;31763;48.180;7.904;2022-07-22T03:57:02;8.35;;;6.90;;
46028;SDS011;31763;48.180;7.904;2022-07-22T03:59:38;7.85;;;6.20;;
46028;SDS011;31763;48.180;7.904;2022-07-22T04:02:17;9.45;;;6.30;;
46028;SDS011;31763;48.180;7.904;2022-07-22T04:04:45;8.82;;;6.65;;
46028;SDS011;31763;48.180;7.904;2022-07-22T04:07:12;11.45;;;7.18;;
46028;SDS011;31763;48.180;7.904;2022-07-22T04:09:39;7.30;;;6.35;;
46028;SDS011;31763;48.180;7.904;2022-07-22T04:12:07;7.63;;;6.85;;
46028;SDS011;31763;48.180;7.904;2022-07-22T04:14:52;8.35;;;6.32;;
46028;SDS011;31763;48.180;7.904;2022-07-22T04:17:19;8.90;;;7.18;;
46028;SDS011;31763;48.180;7.904;2022-07-22T04:19:45;8.10;;;6.70;;
46028;SDS011;31763;48.180;7.904;2022-07-22T04:22:12;8.98;;;6.95;;
46028;SDS011;31763;48.180;7.904;2022-07-22T04:24:39;8.45;;;6.75;;
46028;SDS011;31763;48.180;7.904;2022-07-22T04:27:06;9.88;;;7.05;;
46028;SDS011;31763;48.180;7.904;2022-07-22T04:29:33;7.25;;;6.55;;
46028;SDS011;31763;48.180;7.904;2022-07-22T04:31:59;7.75;;;6.95;;
46028;SDS011;31763;48.180;7.904;2022-07-22T04:34:28;8.13;;;7.32;;
46028;SDS011;31763;48.180;7.904;2022-07-22T04:36:55;7.13;;;6.47;;
46028;SDS011;31763;48.180;7.904;2022-07-22T04:39:21;7.80;;;6.97;;
46028;SDS011;31763;48.180;7.904;2022-07-22T04:41:48;9.50;;;7.53;;
46028;SDS011;31763;48.180;7.904;2022-07-22T04:44:15;7.43;;;6.72;;
46028;SDS011;31763;48.180;7.904;2022-07-22T04:46:42;8.48;;;7.13;;
46028;SDS011;31763;48.180;7.904;2022-07-22T04:49:09;8.52;;;6.60;;
46028;SDS011;31763;48.180;7.904;2022-07-22T04:51:36;8.10;;;6.40;;
46028;SDS011;31763;48.180;7.904;2022-07-22T04:54:02;8.80;;;7.28;;
46028;SDS011;31763;48.180;7.904;2022-07-22T04:56:32;8.10;;;7.30;;
46028;SDS011;31763;48.180;7.904;2022-07-22T04:58:58;7.93;;;7.13;;
46028;SDS011;31763;48.180;7.904;2022-07-22T05:01:26;7.88;;;7.07;;
46028;SDS011;31763;48.180;7.904;2022-07-22T05:03:53;11.23;;;7.28;;
46028;SDS011;31763;48.180;7.904;2022-07-22T05:06:20;8.38;;;6.57;;
46028;SDS011;31763;48.180;7.904;2022-07-22T05:08:47;11.25;;;6.53;;
46028;SDS011;31763;48.180;7.904;2022-07-22T05:11:14;10.60;;;7.45;;
46028;SDS011;31763;48.180;7.904;2022-07-22T05:13:41;8.02;;;6.40;;
46028;SDS011;31763;48.180;7.904;2022-07-22T05:16:08;8.07;;;7.28;;
46028;SDS011;31763;48.180;7.904;2022-07-22T05:18:34;8.57;;;7.20;;
46028;SDS011;31763;48.180;7.904;2022-07-22T05:21:02;8.27;;;7.28;;
46028;SDS011;31763;48.180;7.904;2022-07-22T05:23:30;9.90;;;7.43;;
46028;SDS011;31763;48.180;7.904;2022-07-22T05:25:57;7.22;;;6.53;;
46028;SDS011;31763;48.180;7.904;2022-07-22T05:28:23;7.82;;;7.03;;
46028;SDS011;31763;48.180;7.904;2022-07-22T05:30:50;8.40;;;7.13;;
46028;SDS011;31763;48.180;7.904;2022-07-22T05:33:17;7.82;;;7.03;;
46028;SDS011;31763;48.180;7.904;2022-07-22T05:35:44;7.18;;;6.47;;
46028;SDS011;31763;48.180;7.904;2022-07-22T05:38:11;9.73;;;6.88;;
46028;SDS011;31763;48.180;7.904;2022-07-22T05:40:38;8.43;;;7.20;;
46028;SDS011;31763;48.180;7.904;2022-07-22T05:43:05;7.78;;;6.97;;
46028;SDS011;31763;48.180;7.904;2022-07-22T05:45:32;9.57;;;6.90;;
46028;SDS011;31763;48.180;7.904;2022-07-22T05:47:59;11.30;;;7.13;;
46028;SDS011;31763;48.180;7.904;2022-07-22T05:50:27;8.23;;;7.30;;
46028;SDS011;31763;48.180;7.904;2022-07-22T05:52:54;9.95;;;6.85;;
46028;SDS011;31763;48.180;7.904;2022-07-22T05:55:21;7.90;;;7.05;;
46028;SDS011;31763;48.180;7.904;2022-07-22T05:57:47;7.65;;;6.32;;
46028;SDS011;31763;48.180;7.904;2022-07-22T06:00:14;7.38;;;6.53;;
46028;SDS011;31763;48.180;7.904;2022-07-22T06:02:41;7.72;;;6.95;;
46028;SDS011;31763;48.180;7.904;2022-07-22T06:05:08;7.90;;;6.38;;
46028;SDS011;31763;48.180;7.904;2022-07-22T06:07:39;8.10;;;7.00;;
46028;SDS011;31763;48.180;7.904;2022-07-22T06:10:06;7.43;;;6.63;;
46028;SDS011;31763;48.180;7.904;2022-07-22T06:12:33;7.97;;;6.63;;
46028;SDS011;31763;48.180;7.904;2022-07-22T06:15:00;9.20;;;7.45;;
46028;SDS011;31763;48.180;7.904;2022-07-22T06:17:26;7.57;;;6.88;;
46028;SDS011;31763;48.180;7.904;2022-07-22T06:19:53;9.82;;;7.25;;
46028;SDS011;31763;48.180;7.904;2022-07-22T06:22:20;7.85;;;6.65;;
46028;SDS011;31763;48.180;7.904;2022-07-22T06:24:47;7.15;;;6.32;;
46028;SDS011;31763;48.180;7.904;2022-07-22T06:27:14;8.60;;;6.63;;
46028;SDS011;31763;48.180;7.904;2022-07-22T06:29:41;7.53;;;6.80;;
46028;SDS011;31763;48.180;7.904;2022-07-22T06:32:08;9.52;;;7.10;;
46028;SDS011;31763;48.180;7.904;2022-07-22T06:34:35;9.57;;;6.97;;
46028;SDS011;31763;48.180;7.904;2022-07-22T06:37:02;11.68;;;7.28;;
46028;SDS011;31763;48.180;7.904;2022-07-22T06:39:29;7.47;;;6.57;;
46028;SDS011;31763;48.180;7.904;2022-07-22T06:41:56;8.55;;;6.65;;
46028;SDS011;31763;48.180;7.904;2022-07-22T06:44:23;6.82;;;6.22;;
46028;SDS011;31763;48.180;7.904;2022-07-22T06:46:50;7.53;;;6.78;;
46028;SDS011;31763;48.180;7.904;2022-07-22T06:49:18;7.70;;;7.00;;
46028;SDS011;31763;48.180;7.904;2022-07-22T06:51:45;10.45;;;6.72;;
46028;SDS011;31763;48.180;7.904;2022-07-22T06:54:11;9.65;;;6.82;;
46028;SDS011;31763;48.180;7.904;2022-07-22T06:56:38;10.52;;;6.75;;
46028;SDS011;31763;48.180;7.904;2022-07-22T06:59:05;9.18;;;7.07;;
46028;SDS011;31763;48.180;7.904;2022-07-22T07:01:32;7.40;;;6.78;;
46028;SDS011;31763;48.180;7.904;2022-07-22T07:03:59;7.45;;;6.75;;
46028;SDS011;31763;48.180;7.904;2022-07-22T07:06:26;8.10;;;6.53;;
46028;SDS011;31763;48.180;7.904;2022-07-22T07:08:53;7.70;;;6.93;;
46028;SDS011;31763;48.180;7.904;2022-07-22T07:11:20;7.50;;;6.70;;
46028;SDS011;31763;48.180;7.904;2022-07-22T07:13:47;7.50;;;6.68;;
46028;SDS011;31763;48.180;7.904;2022-07-22T07:16:14;7.32;;;6.55;;
46028;SDS011;31763;48.180;7.904;2022-07-22T07:18:41;7.65;;;6.95;;
46028;SDS011;31763;48.180;7.904;2022-07-22T07:21:08;12.95;;;7.40;;
46028;SDS011;31763;48.180;7.904;2022-07-22T07:23:35;8.02;;;6.78;;
46028;SDS011;31763;48.180;7.904;2022-07-22T07:26:03;8.80;;;6.75;;
46028;SDS011;31763;48.180;7.904;2022-07-22T07:28:30;9.00;;;7.43;;
46028;SDS011;31763;48.180;7.904;2022-07-22T07:30:57;7.40;;;6.70;;
46028;SDS011;31763;48.180;7.904;2022-07-22T07:33:24;7.15;;;6.53;;
46028;SDS011;31763;48.180;7.904;2022-07-22T07:35:51;7.93;;;6.90;;
46028;SDS011;31763;48.180;7.904;2022-07-22T07:38:18;8.35;;;7.20;;
46028;SDS011;31763;48.180;7.904;2022-07-22T07:40:46;10.95;;;7.80;;
46028;SDS011;31763;48.180;7.904;2022-07-22T07:43:13;7.32;;;6.63;;
46028;SDS011;31763;48.180;7.904;2022-07-22T07:45:40;7.82;;;7.00;;
46028;SDS011;31763;48.180;7.904;2022-07-22T07:48:07;7.93;;;6.85;;
46028;SDS011;31763;48.180;7.904;2022-07-22T07:50:34;7.65;;;6.70;;
46028;SDS011;31763;48.180;7.904;2022-07-22T07:53:01;7.82;;;7.13;;
46028;SDS011;31763;48.180;7.904;2022-07-22T07:55:30;9.60;;;7.00;;
46028;SDS011;31763;48.180;7.904;2022-07-22T07:57:59;9.82;;;7.50;;
46028;SDS011;31763;48.180;7.904;2022-07-22T08:00:26;9.45;;;7.78;;
46028;SDS011;31763;48.180;7.904;2022-07-22T08:02:54;8.32;;;7.45;;
46028;SDS011;31763;48.180;7.904;2022-07-22T08:05:23;10.23;;;7.80;;
46028;SDS011;31763;48.180;7.904;2022-07-22T08:07:50;13.38;;;7.70;;
46028;SDS011;31763;48.180;7.904;2022-07-22T08:10:18;8.70;;;7.80;;
46028;SDS011;31763;48.180;7.904;2022-07-22T08:13:05;9.05;;;7.38;;
46028;SDS011;31763;48.180;7.904;2022-07-22T08:15:34;8.88;;;7.45;;
46028;SDS011;31763;48.180;7.904;2022-07-22T08:18:01;8.60;;;7.10;;
46028;SDS011;31763;48.180;7.904;2022-07-22T08:20:28;7.82;;;7.13;;
46028;SDS011;31763;48.180;7.904;2022-07-22T08:22:55;7.75;;;6.93;;
46028;SDS011;31763;48.180;7.904;2022-07-22T08:25:23;8.00;;;7.20;;
46028;SDS011;31763;48.180;7.904;2022-07-22T08:27:50;7.55;;;6.85;;
46028;SDS011;31763;48.180;7.904;2022-07-22T08:30:17;9.55;;;7.05;;
46028;SDS011;31763;48.180;7.904;2022-07-22T08:32:46;8.18;;;6.90;;
46028;SDS011;31763;48.180;7.904;2022-07-22T08:35:13;8.65;;;6.88;;
46028;SDS011;31763;48.180;7.904;2022-07-22T08:37:40;10.23;;;6.88;;
46028;SDS011;31763;48.180;7.904;2022-07-22T08:40:08;7.40;;;6.60;;
46028;SDS011;31763;48.180;7.904;2022-07-22T08:42:38;8.93;;;6.68;;
46028;SDS011;31763;48.180;7.904;2022-07-22T08:45:06;7.07;;;6.37;;
46028;SDS011;31763;48.180;7.904;2022-07-22T08:47:43;7.70;;;7.00;;
46028;SDS011;31763;48.180;7.904;2022-07-22T08:50:20;7.70;;;6.70;;
46028;SDS011;31763;48.180;7.904;2022-07-22T08:52:58;7.63;;;6.93;;
46028;SDS011;31763;48.180;7.904;2022-07-22T08:55:47;7.47;;;6.78;;
46028;SDS011;31763;48.180;7.904;2022-07-22T08:58:58;7.95;;;6.82;;
46028;SDS011;31763;48.180;7.904;2022-07-22T09:05:06;7.28;;;6.57;;
46028;SDS011;31763;48.180;7.904;2022-07-22T09:08:12;7.22;;;6.53;;
46028;SDS011;31763;48.180;7.904;2022-07-22T09:11:34;7.68;;;6.88;;
46028;SDS011;31763;48.180;7.904;2022-07-22T09:14:07;8.73;;;6.70;;
46028;SDS011;31763;48.180;7.904;2022-07-22T09:19:38;8.23;;;7.10;;
46028;SDS011;31763;48.180;7.904;2022-07-22T09:22:37;8.52;;;7.75;;
46028;SDS011;31763;48.180;7.904;2022-07-22T09:30:49;7.72;;;6.95;;
46028;SDS011;31763;48.180;7.904;2022-07-22T09:33:28;11.73;;;7.90;;
46028;SDS011;31763;48.180;7.904;2022-07-22T09:36:12;7.75;;;6.85;;
46028;SDS011;31763;48.180;7.904;2022-07-22T09:39:03;7.78;;;6.95;;
46028;SDS011;31763;48.180;7.904;2022-07-22T09:41:57;8.85;;;7.55;;
46028;SDS011;31763;48.180;7.904;2022-07-22T09:44:27;8.13;;;7.35;;
46028;SDS011;31763;48.180;7.904;2022-07-22T09:46:55;9.45;;;8.00;;
46028;SDS011;31763;48.180;7.904;2022-07-22T09:49:36;8.50;;;7.68;;
46028;SDS011;31763;48.180;7.904;2022-07-22T09:52:06;12.00;;;8.00;;
46028;SDS011;31763;48.180;7.904;2022-07-22T09:54:33;9.70;;;8.40;;
46028;SDS011;31763;48.180;7.904;2022-07-22T09:57:01;9.60;;;7.80;;
46028;SDS011;31763;48.180;7.904;2022-07-22T09:59:29;9.20;;;7.95;;
46028;SDS011;31763;48.180;7.904;2022-07-22T10:02:22;11.70;;;8.63;;
46028;SDS011;31763;48.180;7.904;2022-07-22T10:05:08;9.73;;;8.50;;
46028;SDS011;31763;48.180;7.904;2022-07-22T10:08:09;11.40;;;7.72;;
46028;SDS011;31763;48.180;7.904;2022-07-22T10:11:04;11.13;;;8.68;;
46028;SDS011;31763;48.180;7.904;2022-07-22T10:13:32;9.80;;;8.80;;
46028;SDS011;31763;48.180;7.904;2022-07-22T10:16:01;10.75;;;8.93;;
46028;SDS011;31763;48.180;7.904;2022-07-22T10:18:28;19.40;;;9.07;;
46028;SDS011;31763;48.180;7.904;2022-07-22T10:21:00;10.98;;;9.07;;
46028;SDS011;31763;48.180;7.904;2022-07-22T10:23:28;11.52;;;8.85;;
46028;SDS011;31763;48.180;7.904;2022-07-22T10:25:58;10.07;;;9.00;;
46028;SDS011;31763;48.180;7.904;2022-07-22T10:29:24;13.43;;;9.48;;
46028;SDS011;31763;48.180;7.904;2022-07-22T10:32:28;10.65;;;8.90;;
46028;SDS011;31763;48.180;7.904;2022-07-22T10:37:35;10.88;;;9.13;;
46028;SDS011;31763;48.180;7.904;2022-07-22T10:40:13;10.30;;;9.18;;
46028;SDS011;31763;48.180;7.904;2022-07-22T10:45:33;9.25;;;8.35;;
46028;SDS011;31763;48.180;7.904;2022-07-22T10:48:05;10.20;;;8.77;;
46028;SDS011;31763;48.180;7.904;2022-07-22T10:53:03;9.98;;;8.20;;
46028;SDS011;31763;48.180;7.904;2022-07-22T10:55:31;10.07;;;8.82;;
46028;SDS011;31763;48.180;7.904;2022-07-22T10:57:59;10.75;;;8.85;;
46028;SDS011;31763;48.180;7.904;2022-07-22T11:00:27;10.13;;;8.68;;
46028;SDS011;31763;48.180;7.904;2022-07-22T11:02:54;10.35;;;8.35;;
46028;SDS011;31763;48.180;7.904;2022-07-22T11:05:25;11.13;;;8.57;;
46028;SDS011;31763;48.180;7.904;2022-07-22T11:07:53;11.52;;;8.90;;
46028;SDS011;31763;48.180;7.904;2022-07-22T11:10:20;11.88;;;8.95;;
46028;SDS011;31763;48.180;7.904;2022-07-22T11:12:48;14.43;;;8.60;;
46028;SDS011;31763;48.180;7.904;2022-07-22T11:15:16;9.27;;;8.35;;
46028;SDS011;31763;48.180;7.904;2022-07-22T11:17:43;12.40;;;8.93;;
46028;SDS011;31763;48.180;7.904;2022-07-22T11:20:11;9.18;;;8.15;;
46028;SDS011;31763;48.180;7.904;2022-07-22T11:22:42;11.07;;;8.80;;
46028;SDS011;31763;48.180;7.904;2022-07-22T11:25:13;11.48;;;8.15;;
46028;SDS011;31763;48.180;7.904;2022-07-22T11:27:47;10.52;;;8.45;;
46028;SDS011;31763;48.180;7.904;2022-07-22T11:30:24;8.85;;;8.02;;
46028;SDS011;31763;48.180;7.904;2022-07-22T11:32:51;9.27;;;8.02;;
46028;SDS011;31763;48.180;7.904;2022-07-22T11:35:18;13.02;;;8.95;;
46028;SDS011;31763;48.180;7.904;2022-07-22T11:37:54;13.50;;;8.90;;
46028;SDS011;31763;48.180;7.904;2022-07-22T11:40:22;9.60;;;8.60;;
46028;SDS011;31763;48.180;7.904;2022-07-22T11:43:02;9.98;;;8.50;;
46028;SDS011;31763;48.180;7.904;2022-07-22T11:45:30;9.98;;;8.27;;
46028;SDS011;31763;48.180;7.904;2022-07-22T11:47:57;9.00;;;8.10;;
46028;SDS011;31763;48.180;7.904;2022-07-22T11:50:31;10.20;;;8.20;;
46028;SDS011;31763;48.180;7.904;2022-07-22T11:53:01;11.00;;;9.43;;
46028;SDS011;31763;48.180;7.904;2022-07-22T11:55:28;11.88;;;8.48;;
46028;SDS011;31763;48.180;7.904;2022-07-22T11:57:56;39.22;;;10.30;;
46028;SDS011;31763;48.180;7.904;2022-07-22T12:00:23;14.30;;;9.00;;
46028;SDS011;31763;48.180;7.904;2022-07-22T12:02:50;11.30;;;8.57;;
46028;SDS011;31763;48.180;7.904;2022-07-22T12:05:18;10.73;;;8.60;;
46028;SDS011;31763;48.180;7.904;2022-07-22T12:08:00;13.02;;;8.00;;
46028;SDS011;31763;48.180;7.904;2022-07-22T12:10:28;10.25;;;8.07;;
46028;SDS011;31763;48.180;7.904;2022-07-22T12:12:55;15.02;;;8.43;;
46028;SDS011;31763;48.180;7.904;2022-07-22T12:15:23;9.98;;;8.20;;
46028;SDS011;31763;48.180;7.904;2022-07-22T12:18:23;10.65;;;8.88;;
46028;SDS011;31763;48.180;7.904;2022-07-22T12:20:53;11.95;;;8.45;;
46028;SDS011;31763;48.180;7.904;2022-07-22T12:23:21;12.23;;;8.68;;
46028;SDS011;31763;48.180;7.904;2022-07-22T12:25:50;10.70;;;7.88;;
46028;SDS011;31763;48.180;7.904;2022-07-22T12:28:22;11.13;;;8.30;;
46028;SDS011;31763;48.180;7.904;2022-07-22T12:30:51;9.82;;;8.02;;
46028;SDS011;31763;48.180;7.904;2022-07-22T12:33:20;9.55;;;8.60;;
46028;SDS011;31763;48.180;7.904;2022-07-22T12:35:58;8.88;;;8.07;;
46028;SDS011;31763;48.180;7.904;2022-07-22T12:38:25;11.55;;;7.88;;
46028;SDS011;31763;48.180;7.904;2022-07-22T12:43:50;8.88;;;8.07;;
46028;SDS011;31763;48.180;7.904;2022-07-22T12:46:18;9.13;;;8.32;;
46028;SDS011;31763;48.180;7.904;2022-07-22T12:48:50;9.13;;;7.90;;
46028;SDS011;31763;48.180;7.904;2022-07-22T12:51:19;9.50;;;8.52;;
46028;SDS011;31763;48.180;7.904;2022-07-22T12:53:46;9.10;;;8.07;;
46028;SDS011;31763;48.180;7.904;2022-07-22T12:56:13;10.25;;;7.60;;
46028;SDS011;31763;48.180;7.904;2022-07-22T12:58:40;9.68;;;8.15;;
46028;SDS011;31763;48.180;7.904;2022-07-22T13:01:08;8.85;;;8.02;;
46028;SDS011;31763;48.180;7.904;2022-07-22T13:03:35;8.43;;;7.60;;
46028;SDS011;31763;48.180;7.904;2022-07-22T13:06:03;8.60;;;7.90;;
46028;SDS011;31763;48.180;7.904;2022-07-22T13:08:33;8.32;;;7.50;;
46028;SDS011;31763;48.180;7.904;2022-07-22T13:11:13;8.98;;;7.57;;
46028;SDS011;31763;48.180;7.904;2022-07-22T13:13:55;8.85;;;8.05;;
46028;SDS011;31763;48.180;7.904;2022-07-22T13:16:32;9.02;;;7.32;;
46028;SDS011;31763;48.180;7.904;2022-07-22T13:19:00;8.40;;;7.60;;
46028;SDS011;31763;48.180;7.904;2022-07-22T13:21:27;10.07;;;7.90;;
46028;SDS011;31763;48.180;7.904;2022-07-22T13:23:54;8.93;;;8.02;;
46028;SDS011;31763;48.180;7.904;2022-07-22T13:26:22;8.15;;;6.85;;
46028;SDS011;31763;48.180;7.904;2022-07-22T13:28:52;8.23;;;7.53;;
46028;SDS011;31763;48.180;7.904;2022-07-22T13:31:19;8.32;;;7.60;;
46028;SDS011;31763;48.180;7.904;2022-07-22T13:33:46;8.63;;;7.75;;
46028;SDS011;31763;48.180;7.904;2022-07-22T13:36:17;11.68;;;7.55;;
46028;SDS011;31763;48.180;7.904;2022-07-22T13:39:12;8.68;;;7.07;;
46028;SDS011;31763;48.180;7.904;2022-07-22T13:41:47;10.93;;;7.57;;
46028;SDS011;31763;48.180;7.904;2022-07-22T13:44:22;7.93;;;6.95;;
46028;SDS011;31763;48.180;7.904;2022-07-22T13:46:50;7.70;;;6.60;;
46028;SDS011;31763;48.180;7.904;2022-07-22T13:49:59;8.65;;;7.45;;
46028;SDS011;31763;48.180;7.904;2022-07-22T13:52:48;8.10;;;7.30;;
46028;SDS011;31763;48.180;7.904;2022-07-22T13:55:24;7.70;;;6.47;;
46028;SDS011;31763;48.180;7.904;2022-07-22T13:58:49;7.75;;;7.05;;
46028;SDS011;31763;48.180;7.904;2022-07-22T14:01:20;19.55;;;8.15;;
46028;SDS011;31763;48.180;7.904;2022-07-22T14:04:30;7.65;;;6.93;;
46028;SDS011;31763;48.180;7.904;2022-07-22T14:07:26;10.77;;;7.22;;
46028;SDS011;31763;48.180;7.904;2022-07-22T14:10:22;10.45;;;7.72;;
46028;SDS011;31763;48.180;7.904;2022-07-22T14:13:13;10.85;;;7.70;;
46028;SDS011;31763;48.180;7.904;2022-07-22T14:16:07;8.30;;;7.50;;
46028;SDS011;31763;48.180;7.904;2022-07-22T14:19:26;9.00;;;7.15;;
46028;SDS011;31763;48.180;7.904;2022-07-22T14:21:54;11.13;;;7.30;;
46028;SDS011;31763;48.180;7.904;2022-07-22T14:24:22;9.77;;;7.85;;
46028;SDS011;31763;48.180;7.904;2022-07-22T14:26:50;9.70;;;6.90;;
46028;SDS011;31763;48.180;7.904;2022-07-22T14:29:18;8.02;;;6.82;;
46028;SDS011;31763;48.180;7.904;2022-07-22T14:31:47;9.00;;;7.07;;
46028;SDS011;31763;48.180;7.904;2022-07-22T14:34:16;8.32;;;7.20;;
46028;SDS011;31763;48.180;7.904;2022-07-22T14:36:45;8.30;;;6.90;;
46028;SDS011;31763;48.180;7.904;2022-07-22T14:39:13;7.30;;;6.68;;
46028;SDS011;31763;48.180;7.904;2022-07-22T14:41:40;7.63;;;6.60;;
46028;SDS011;31763;48.180;7.904;2022-07-22T14:44:07;11.82;;;7.22;;
46028;SDS011;31763;48.180;7.904;2022-07-22T14:46:35;7.70;;;6.85;;
46028;SDS011;31763;48.180;7.904;2022-07-22T14:49:02;7.40;;;6.07;;
46028;SDS011;31763;48.180;7.904;2022-07-22T14:51:30;9.65;;;6.05;;
46028;SDS011;31763;48.180;7.904;2022-07-22T14:53:57;13.05;;;6.43;;
46028;SDS011;31763;48.180;7.904;2022-07-22T14:56:25;8.75;;;6.50;;
46028;SDS011;31763;48.180;7.904;2022-07-22T14:58:52;9.20;;;6.40;;
46028;SDS011;31763;48.180;7.904;2022-07-22T15:01:19;10.88;;;6.65;;
46028;SDS011;31763;48.180;7.904;2022-07-22T15:03:52;8.00;;;6.90;;
46028;SDS011;31763;48.180;7.904;2022-07-22T15:06:20;10.25;;;6.43;;
46028;SDS011;31763;48.180;7.904;2022-07-22T15:08:48;7.15;;;6.30;;
46028;SDS011;31763;48.180;7.904;2022-07-22T15:11:15;6.95;;;6.28;;
46028;SDS011;31763;48.180;7.904;2022-07-22T15:13:43;7.80;;;5.97;;
46028;SDS011;31763;48.180;7.904;2022-07-22T15:16:10;7.05;;;6.38;;
46028;SDS011;31763;48.180;7.904;2022-07-22T15:18:38;7.80;;;6.40;;
46028;SDS011;31763;48.180;7.904;2022-07-22T15:21:06;8.18;;;6.60;;
46028;SDS011;31763;48.180;7.904;2022-07-22T15:23:33;7.28;;;6.10;;
46028;SDS011;31763;48.180;7.904;2022-07-22T15:26:01;7.32;;;6.55;;
46028;SDS011;31763;48.180;7.904;2022-07-22T15:28:28;7.70;;;5.53;;
46028;SDS011;31763;48.180;7.904;2022-07-22T15:31:00;6.65;;;6.03;;
46028;SDS011;31763;48.180;7.904;2022-07-22T15:33:27;7.30;;;5.90;;
46028;SDS011;31763;48.180;7.904;2022-07-22T15:36:04;9.27;;;6.00;;